createdAt,value
2018-12-26T00:00:53.593Z,0.00
2018-12-26T00:01:53.400Z,0.00
2018-12-26T00:02:53.494Z,0.00
2018-12-26T00:03:53.386Z,0.00
2018-12-26T00:04:53.461Z,0.00
2018-12-26T00:05:53.317Z,0.00
2018-12-26T00:06:53.468Z,0.00
2018-12-26T00:07:53.228Z,0.00
2018-12-26T00:08:53.170Z,0.00
2018-12-26T00:09:53.324Z,0.00
2018-12-26T00:10:53.128Z,0.00
2018-12-26T00:11:53.097Z,0.00
2018-12-26T00:12:53.047Z,0.00
2018-12-26T00:13:53.056Z,0.00
2018-12-26T00:14:53.011Z,0.00
2018-12-26T00:15:53.186Z,0.00
2018-12-26T00:16:53.133Z,0.00
2018-12-26T00:17:53.131Z,0.00
2018-12-26T00:18:52.890Z,0.00
2018-12-26T00:19:52.916Z,0.00
2018-12-26T00:20:52.984Z,0.00
2018-12-26T00:21:52.788Z,0.00
2018-12-26T00:22:52.790Z,0.00
2018-12-26T00:23:52.806Z,0.00
2018-12-26T00:24:52.689Z,0.00
2018-12-26T00:25:52.645Z,0.00
2018-12-26T00:27:52.605Z,0.00
2018-12-26T00:28:52.620Z,0.00
2018-12-26T00:29:52.527Z,0.00
2018-12-26T00:30:52.537Z,0.00
2018-12-26T00:31:52.461Z,0.00
2018-12-26T00:32:52.652Z,0.00
2018-12-26T00:33:52.419Z,0.00
2018-12-26T00:34:52.351Z,0.00
2018-12-26T00:35:52.624Z,0.00
2018-12-26T00:36:52.338Z,0.00
2018-12-26T00:37:52.390Z,0.00
2018-12-26T00:38:52.447Z,0.00
2018-12-26T00:39:52.216Z,0.00
2018-12-26T00:40:52.179Z,0.00
2018-12-26T00:41:52.151Z,0.00
2018-12-26T00:42:52.125Z,0.00
2018-12-26T00:43:52.127Z,0.00
2018-12-26T00:44:52.159Z,0.00
2018-12-26T00:45:52.031Z,0.00
2018-12-26T00:46:51.987Z,0.00
2018-12-26T00:47:51.971Z,0.00
2018-12-26T00:48:51.939Z,0.00
2018-12-26T00:49:51.898Z,0.00
2018-12-26T00:50:51.834Z,0.00
2018-12-26T00:51:51.824Z,0.00
2018-12-26T00:52:51.831Z,0.00
2018-12-26T00:53:51.844Z,0.00
2018-12-26T00:55:51.757Z,0.00
2018-12-26T00:56:51.660Z,0.00
2018-12-26T00:57:51.646Z,0.00
2018-12-26T00:58:51.599Z,0.00
2018-12-26T00:59:51.755Z,0.00
2018-12-26T01:00:51.529Z,0.00
2018-12-26T01:01:51.553Z,0.00
2018-12-26T01:02:51.503Z,0.00
2018-12-26T01:03:51.565Z,0.00
2018-12-26T01:04:51.451Z,0.00
2018-12-26T01:05:51.374Z,0.00
2018-12-26T01:06:51.383Z,0.00
2018-12-26T01:07:51.327Z,0.00
2018-12-26T01:08:51.314Z,0.00
2018-12-26T01:09:51.258Z,0.00
2018-12-26T01:10:51.241Z,0.00
2018-12-26T01:11:51.203Z,0.00
2018-12-26T01:12:51.157Z,0.00
2018-12-26T01:13:51.139Z,0.00
2018-12-26T01:14:51.105Z,0.00
2018-12-26T01:15:51.084Z,0.00
2018-12-26T01:16:51.039Z,0.00
2018-12-26T01:17:51.008Z,0.00
2018-12-26T01:18:50.982Z,0.00
2018-12-26T01:19:50.940Z,0.00
2018-12-26T01:20:50.935Z,0.00
2018-12-26T01:21:50.909Z,0.00
2018-12-26T01:22:50.867Z,0.00
2018-12-26T01:23:50.937Z,0.00
2018-12-26T01:24:50.794Z,0.00
2018-12-26T01:25:50.760Z,0.00
2018-12-26T01:26:50.784Z,0.00
2018-12-26T01:27:50.723Z,0.00
2018-12-26T01:28:50.716Z,0.00
2018-12-26T01:29:50.648Z,0.00
2018-12-26T01:30:50.607Z,0.00
2018-12-26T01:31:51.043Z,0.00
2018-12-26T01:32:50.523Z,0.00
2018-12-26T01:33:50.519Z,0.00
2018-12-26T01:34:50.455Z,0.00
2018-12-26T01:35:50.454Z,0.00
2018-12-26T01:36:50.400Z,0.00
2018-12-26T01:37:50.815Z,0.00
2018-12-26T01:38:50.333Z,0.00
2018-12-26T01:39:50.332Z,0.00
2018-12-26T01:40:50.264Z,0.00
2018-12-26T01:41:50.273Z,0.00
2018-12-26T01:42:50.219Z,0.00
2018-12-26T01:43:50.357Z,0.00
2018-12-26T01:44:50.170Z,0.00
2018-12-26T01:45:50.139Z,0.00
2018-12-26T01:46:50.106Z,0.00
2018-12-26T01:47:50.196Z,0.00
2018-12-26T01:48:50.018Z,0.00
2018-12-26T01:49:50.009Z,0.00
2018-12-26T01:50:49.946Z,0.00
2018-12-26T01:51:49.935Z,0.00
2018-12-26T01:52:49.957Z,0.00
2018-12-26T01:53:49.844Z,0.00
2018-12-26T01:55:49.774Z,0.00
2018-12-26T01:56:49.742Z,0.00
2018-12-26T01:57:49.815Z,0.00
2018-12-26T01:58:49.684Z,0.00
2018-12-26T01:59:49.654Z,0.00
2018-12-26T02:00:49.834Z,0.00
2018-12-26T02:01:49.697Z,0.00
2018-12-26T02:02:49.536Z,0.00
2018-12-26T02:03:49.498Z,0.00
2018-12-26T02:04:49.791Z,0.00
2018-12-26T02:05:49.446Z,0.00
2018-12-26T02:06:49.405Z,0.00
2018-12-26T02:07:49.419Z,0.00
2018-12-26T02:08:49.363Z,0.00
2018-12-26T02:09:49.332Z,0.00
2018-12-26T02:10:49.793Z,0.00
2018-12-26T02:11:49.249Z,0.00
2018-12-26T02:12:49.241Z,0.00
2018-12-26T02:13:49.195Z,0.00
2018-12-26T02:14:49.168Z,0.00
2018-12-26T02:15:49.154Z,0.00
2018-12-26T02:16:49.286Z,0.00
2018-12-26T02:17:49.107Z,0.00
2018-12-26T02:18:49.053Z,0.00
2018-12-26T02:19:49.000Z,0.00
2018-12-26T02:20:48.978Z,0.00
2018-12-26T02:21:48.992Z,0.00
2018-12-26T02:22:48.923Z,0.00
2018-12-26T02:23:48.865Z,0.00
2018-12-26T02:24:48.838Z,0.00
2018-12-26T02:25:48.811Z,0.00
2018-12-26T02:26:48.770Z,0.00
2018-12-26T02:27:48.738Z,0.00
2018-12-26T02:28:48.697Z,0.00
2018-12-26T02:29:48.682Z,0.00
2018-12-26T02:30:48.648Z,0.00
2018-12-26T02:31:48.647Z,0.00
2018-12-26T02:32:49.087Z,0.00
2018-12-26T02:33:48.622Z,0.00
2018-12-26T02:34:48.522Z,0.00
2018-12-26T02:35:48.484Z,0.00
2018-12-26T02:36:48.480Z,0.00
2018-12-26T02:37:48.418Z,0.00
2018-12-26T02:38:48.617Z,0.00
2018-12-26T02:39:48.410Z,0.00
2018-12-26T02:40:48.325Z,0.00
2018-12-26T02:41:48.293Z,0.00
2018-12-26T02:42:48.319Z,0.00
2018-12-26T02:43:48.219Z,0.00
2018-12-26T02:44:48.218Z,0.00
2018-12-26T02:45:48.170Z,0.00
2018-12-26T02:46:48.152Z,0.00
2018-12-26T02:47:48.120Z,0.00
2018-12-26T02:48:48.097Z,0.00
2018-12-26T02:49:48.032Z,0.00
2018-12-26T02:50:48.017Z,0.00
2018-12-26T02:51:47.972Z,0.00
2018-12-26T02:52:47.939Z,0.00
2018-12-26T02:53:47.913Z,0.00
2018-12-26T02:54:47.887Z,0.00
2018-12-26T02:55:47.852Z,0.00
2018-12-26T02:56:49.104Z,0.00
2018-12-26T02:57:47.822Z,0.00
2018-12-26T02:58:47.755Z,0.00
2018-12-26T02:59:47.700Z,0.00
2018-12-26T03:00:47.682Z,0.00
2018-12-26T03:01:47.647Z,0.00
2018-12-26T03:02:47.630Z,0.00
2018-12-26T03:03:47.602Z,0.00
2018-12-26T03:04:47.767Z,0.00
2018-12-26T03:05:47.538Z,0.00
2018-12-26T03:06:47.503Z,0.00
2018-12-26T03:07:47.455Z,0.00
2018-12-26T03:08:47.457Z,0.00
2018-12-26T03:09:47.392Z,0.00
2018-12-26T03:10:47.506Z,0.00
2018-12-26T03:11:47.346Z,0.00
2018-12-26T03:12:47.315Z,0.00
2018-12-26T03:13:47.265Z,0.00
2018-12-26T03:14:47.252Z,0.00
2018-12-26T03:15:47.194Z,0.00
2018-12-26T03:16:47.209Z,0.00
2018-12-26T03:17:47.122Z,0.00
2018-12-26T03:18:47.111Z,0.00
2018-12-26T03:19:47.077Z,0.00
2018-12-26T03:20:47.039Z,0.00
2018-12-26T03:21:47.003Z,0.00
2018-12-26T03:22:46.974Z,0.00
2018-12-26T03:23:46.939Z,0.00
2018-12-26T03:24:46.903Z,0.00
2018-12-26T03:25:46.897Z,0.00
2018-12-26T03:26:55.786Z,0.00
2018-12-26T03:27:46.815Z,0.00
2018-12-26T03:28:46.860Z,0.00
2018-12-26T03:29:46.760Z,0.00
2018-12-26T03:30:46.727Z,0.00
2018-12-26T03:31:46.699Z,0.00
2018-12-26T03:32:46.670Z,0.00
2018-12-26T03:33:46.625Z,0.00
2018-12-26T03:34:46.584Z,0.00
2018-12-26T03:35:46.572Z,0.00
2018-12-26T03:36:47.029Z,0.00
2018-12-26T03:37:46.532Z,0.00
2018-12-26T03:38:46.461Z,0.00
2018-12-26T03:39:46.444Z,0.00
2018-12-26T03:40:46.417Z,0.00
2018-12-26T03:41:46.398Z,0.00
2018-12-26T03:42:46.488Z,0.00
2018-12-26T03:43:46.319Z,0.00
2018-12-26T03:44:46.279Z,0.00
2018-12-26T03:45:46.233Z,0.00
2018-12-26T03:46:46.205Z,0.00
2018-12-26T03:47:46.226Z,0.00
2018-12-26T03:48:46.151Z,0.00
2018-12-26T03:49:46.123Z,0.00
2018-12-26T03:50:46.089Z,0.00
2018-12-26T03:51:46.073Z,0.00
2018-12-26T03:52:46.019Z,0.00
2018-12-26T03:53:45.993Z,0.00
2018-12-26T03:54:45.953Z,0.00
2018-12-26T03:55:45.920Z,0.00
2018-12-26T03:56:45.900Z,0.00
2018-12-26T03:57:45.876Z,0.00
2018-12-26T03:58:46.050Z,0.00
2018-12-26T03:59:45.808Z,0.00
2018-12-26T04:00:45.833Z,0.00
2018-12-26T04:01:45.724Z,0.00
2018-12-26T04:02:45.702Z,0.00
2018-12-26T04:03:45.885Z,0.00
2018-12-26T04:04:45.627Z,0.00
2018-12-26T04:05:45.603Z,0.00
2018-12-26T04:06:45.595Z,0.00
2018-12-26T04:07:45.538Z,0.00
2018-12-26T04:08:45.502Z,0.00
2018-12-26T04:09:45.650Z,0.00
2018-12-26T04:10:45.447Z,0.00
2018-12-26T04:11:45.396Z,0.00
2018-12-26T04:12:45.365Z,0.00
2018-12-26T04:13:45.368Z,0.00
2018-12-26T04:14:45.412Z,0.00
2018-12-26T04:15:45.292Z,0.00
2018-12-26T04:16:45.272Z,0.00
2018-12-26T04:17:45.243Z,0.00
2018-12-26T04:18:45.256Z,0.00
2018-12-26T04:19:45.224Z,0.00
2018-12-26T04:20:45.147Z,0.00
2018-12-26T04:21:45.095Z,0.00
2018-12-26T04:22:45.036Z,0.00
2018-12-26T04:23:45.035Z,0.00
2018-12-26T04:24:45.001Z,0.00
2018-12-26T04:25:44.959Z,0.00
2018-12-26T04:26:45.036Z,0.00
2018-12-26T04:27:44.878Z,0.00
2018-12-26T04:28:44.846Z,0.00
2018-12-26T04:29:44.850Z,0.00
2018-12-26T04:30:44.800Z,0.00
2018-12-26T04:31:44.774Z,0.00
2018-12-26T04:32:44.720Z,0.00
2018-12-26T04:33:44.693Z,0.00
2018-12-26T04:34:44.667Z,0.00
2018-12-26T04:35:44.968Z,0.00
2018-12-26T04:36:44.600Z,0.00
2018-12-26T04:37:44.595Z,0.00
2018-12-26T04:38:44.551Z,0.00
2018-12-26T04:39:44.489Z,0.00
2018-12-26T04:40:44.479Z,0.00
2018-12-26T04:41:44.483Z,0.00
2018-12-26T04:42:44.409Z,0.00
2018-12-26T04:43:44.394Z,0.00
2018-12-26T04:44:44.337Z,0.00
2018-12-26T04:45:44.298Z,0.00
2018-12-26T04:46:44.284Z,0.00
2018-12-26T04:47:44.247Z,0.00
2018-12-26T04:48:44.203Z,0.00
2018-12-26T04:49:44.171Z,0.00
2018-12-26T04:50:44.174Z,0.00
2018-12-26T04:51:44.123Z,0.00
2018-12-26T04:52:44.063Z,0.00
2018-12-26T04:53:44.049Z,0.00
2018-12-26T04:54:44.010Z,0.00
2018-12-26T04:55:43.991Z,0.00
2018-12-26T04:56:43.971Z,0.00
2018-12-26T04:57:43.910Z,0.00
2018-12-26T04:58:43.886Z,0.00
2018-12-26T04:59:43.860Z,0.00
2018-12-26T05:00:43.825Z,0.00
2018-12-26T05:01:43.796Z,0.00
2018-12-26T05:02:43.774Z,0.00
2018-12-26T05:03:43.736Z,0.00
2018-12-26T05:04:43.702Z,0.00
2018-12-26T05:05:43.667Z,0.00
2018-12-26T05:06:43.637Z,0.00
2018-12-26T05:07:43.771Z,0.00
2018-12-26T05:08:43.583Z,0.00
2018-12-26T05:09:43.527Z,0.00
2018-12-26T05:10:43.530Z,0.00
2018-12-26T05:11:43.461Z,0.00
2018-12-26T05:12:43.419Z,0.00
2018-12-26T05:13:43.403Z,0.00
2018-12-26T05:14:43.375Z,0.00
2018-12-26T05:15:43.346Z,0.00
2018-12-26T05:16:43.314Z,0.00
2018-12-26T05:17:43.287Z,0.00
2018-12-26T05:18:43.228Z,0.00
2018-12-26T05:19:43.203Z,0.00
2018-12-26T05:20:43.181Z,0.00
2018-12-26T05:21:43.167Z,0.00
2018-12-26T05:22:43.107Z,0.00
2018-12-26T05:23:43.081Z,0.00
2018-12-26T05:24:43.042Z,0.00
2018-12-26T05:25:43.017Z,0.00
2018-12-26T05:26:42.983Z,0.00
2018-12-26T05:27:42.965Z,0.00
2018-12-26T05:28:42.939Z,0.00
2018-12-26T05:29:42.906Z,0.00
2018-12-26T05:30:42.860Z,0.00
2018-12-26T05:31:42.817Z,0.00
2018-12-26T05:32:42.782Z,0.00
2018-12-26T05:33:42.770Z,0.00
2018-12-26T05:34:42.738Z,0.00
2018-12-26T05:35:42.701Z,0.00
2018-12-26T05:36:42.659Z,0.00
2018-12-26T05:37:42.632Z,0.00
2018-12-26T05:38:42.653Z,0.00
2018-12-26T05:39:42.735Z,0.00
2018-12-26T05:40:42.526Z,0.00
2018-12-26T05:41:42.517Z,0.00
2018-12-26T05:42:42.448Z,0.00
2018-12-26T05:43:42.436Z,0.00
2018-12-26T05:44:42.402Z,0.00
2018-12-26T05:45:42.726Z,0.00
2018-12-26T05:46:42.343Z,0.00
2018-12-26T05:47:42.305Z,0.00
2018-12-26T05:48:42.293Z,0.00
2018-12-26T05:49:42.252Z,0.00
2018-12-26T05:50:42.228Z,0.00
2018-12-26T05:51:42.158Z,0.00
2018-12-26T05:52:42.177Z,0.00
2018-12-26T05:53:42.119Z,0.00
2018-12-26T05:54:42.106Z,0.00
2018-12-26T05:55:42.068Z,0.00
2018-12-26T05:56:42.019Z,0.00
2018-12-26T05:57:42.982Z,0.00
2018-12-26T05:58:41.958Z,0.00
2018-12-26T05:59:41.921Z,0.00
2018-12-26T06:00:41.879Z,0.00
2018-12-26T06:01:41.830Z,0.00
2018-12-26T06:02:41.841Z,0.00
2018-12-26T06:03:41.775Z,0.00
2018-12-26T06:04:41.756Z,0.00
2018-12-26T06:05:41.722Z,0.00
2018-12-26T06:06:41.987Z,0.00
2018-12-26T06:07:41.665Z,0.00
2018-12-26T06:08:41.629Z,0.00
2018-12-26T06:09:41.589Z,0.00
2018-12-26T06:10:41.557Z,0.00
2018-12-26T06:11:41.646Z,0.00
2018-12-26T06:12:41.495Z,0.00
2018-12-26T06:13:41.458Z,0.00
2018-12-26T06:14:41.425Z,0.00
2018-12-26T06:15:41.398Z,0.00
2018-12-26T06:16:41.506Z,0.00
2018-12-26T06:17:41.349Z,0.00
2018-12-26T06:18:41.301Z,0.00
2018-12-26T06:19:41.263Z,0.00
2018-12-26T06:20:41.235Z,0.00
2018-12-26T06:21:41.192Z,0.00
2018-12-26T06:22:41.178Z,0.00
2018-12-26T06:23:41.143Z,0.00
2018-12-26T06:24:41.103Z,0.00
2018-12-26T06:25:41.073Z,0.00
2018-12-26T06:26:41.050Z,0.00
2018-12-26T06:27:41.033Z,0.00
2018-12-26T06:28:40.989Z,0.00
2018-12-26T06:29:40.939Z,0.00
2018-12-26T06:30:40.934Z,0.00
2018-12-26T06:31:40.868Z,0.00
2018-12-26T06:32:40.832Z,0.00
2018-12-26T06:33:40.809Z,0.00
2018-12-26T06:34:40.795Z,0.00
2018-12-26T06:35:40.759Z,0.00
2018-12-26T06:36:40.723Z,0.00
2018-12-26T06:37:40.879Z,0.00
2018-12-26T06:38:40.656Z,0.00
2018-12-26T06:39:40.616Z,0.00
2018-12-26T06:40:40.611Z,0.00
2018-12-26T06:41:40.559Z,0.00
2018-12-26T06:42:40.524Z,0.00
2018-12-26T06:43:40.509Z,0.00
2018-12-26T06:44:40.459Z,0.00
2018-12-26T06:45:40.421Z,0.00
2018-12-26T06:46:40.403Z,0.00
2018-12-26T06:47:40.369Z,0.00
2018-12-26T06:48:40.329Z,0.00
2018-12-26T06:49:40.293Z,0.00
2018-12-26T06:50:40.280Z,0.00
2018-12-26T06:51:40.213Z,0.00
2018-12-26T06:52:40.369Z,0.00
2018-12-26T06:53:40.170Z,0.00
2018-12-26T06:54:40.129Z,0.00
2018-12-26T06:55:41.682Z,0.00
2018-12-26T06:56:40.071Z,0.00
2018-12-26T06:57:40.103Z,0.00
2018-12-26T06:58:40.173Z,0.00
2018-12-26T06:59:39.970Z,0.00
2018-12-26T07:00:39.943Z,0.00
2018-12-26T07:01:39.895Z,0.00
2018-12-26T07:02:39.870Z,0.00
2018-12-26T07:04:39.797Z,0.00
2018-12-26T07:05:39.818Z,0.00
2018-12-26T07:06:39.826Z,0.00
2018-12-26T07:07:39.859Z,0.00
2018-12-26T07:08:39.752Z,0.00
2018-12-26T07:09:39.661Z,0.00
2018-12-26T07:10:39.599Z,0.00
2018-12-26T07:11:39.587Z,0.00
2018-12-26T07:12:39.681Z,0.00
2018-12-26T07:13:39.530Z,0.00
2018-12-26T07:14:39.680Z,0.00
2018-12-26T07:15:39.445Z,0.00
2018-12-26T07:16:39.405Z,0.00
2018-12-26T07:17:39.380Z,0.00
2018-12-26T07:18:39.487Z,0.00
2018-12-26T07:19:39.502Z,0.00
2018-12-26T07:20:39.280Z,0.00
2018-12-26T07:21:39.255Z,0.00
2018-12-26T07:22:39.218Z,0.00
2018-12-26T07:23:39.183Z,0.00
2018-12-26T07:24:39.144Z,0.00
2018-12-26T07:25:39.118Z,0.00
2018-12-26T07:26:39.082Z,0.00
2018-12-26T07:27:39.038Z,0.00
2018-12-26T07:28:39.019Z,0.00
2018-12-26T07:29:38.990Z,0.00
2018-12-26T07:30:38.950Z,0.00
2018-12-26T07:31:38.930Z,0.00
2018-12-26T07:32:38.902Z,0.00
2018-12-26T07:33:38.862Z,0.00
2018-12-26T07:34:42.237Z,0.00
2018-12-26T07:35:38.796Z,0.00
2018-12-26T07:36:38.775Z,0.00
2018-12-26T07:37:38.723Z,0.00
2018-12-26T07:38:38.703Z,0.00
2018-12-26T07:39:38.672Z,0.00
2018-12-26T07:40:38.653Z,0.00
2018-12-26T07:41:38.598Z,0.00
2018-12-26T07:42:38.575Z,0.00
2018-12-26T07:43:38.577Z,0.00
2018-12-26T07:44:38.479Z,0.00
2018-12-26T07:45:38.675Z,0.00
2018-12-26T07:46:38.442Z,0.00
2018-12-26T07:47:38.404Z,0.00
2018-12-26T07:48:38.364Z,0.00
2018-12-26T07:49:38.331Z,0.00
2018-12-26T07:50:38.856Z,0.00
2018-12-26T07:51:38.267Z,0.00
2018-12-26T07:52:38.220Z,0.00
2018-12-26T07:53:38.224Z,0.00
2018-12-26T07:54:38.184Z,0.00
2018-12-26T07:55:38.131Z,0.00
2018-12-26T07:56:38.413Z,0.00
2018-12-26T07:57:38.074Z,0.00
2018-12-26T07:58:38.049Z,0.00
2018-12-26T07:59:38.031Z,0.00
2018-12-26T08:00:37.990Z,0.00
2018-12-26T08:01:37.942Z,0.00
2018-12-26T08:02:37.989Z,0.00
2018-12-26T08:03:37.875Z,0.00
2018-12-26T08:04:37.855Z,0.00
2018-12-26T08:05:37.834Z,0.00
2018-12-26T08:06:37.883Z,0.00
2018-12-26T08:07:37.903Z,0.00
2018-12-26T08:08:37.733Z,0.00
2018-12-26T08:09:37.693Z,0.00
2018-12-26T08:10:37.641Z,0.00
2018-12-26T08:11:37.632Z,0.00
2018-12-26T08:12:37.572Z,0.00
2018-12-26T08:13:37.872Z,0.00
2018-12-26T08:14:37.514Z,0.00
2018-12-26T08:15:37.489Z,0.00
2018-12-26T08:16:37.464Z,0.00
2018-12-26T08:17:37.418Z,0.00
2018-12-26T08:18:37.410Z,0.00
2018-12-26T08:19:37.359Z,0.00
2018-12-26T08:20:37.326Z,0.00
2018-12-26T08:21:37.296Z,0.00
2018-12-26T08:22:37.279Z,0.00
2018-12-26T08:23:37.235Z,0.00
2018-12-26T08:24:37.195Z,4.00
2018-12-26T08:25:37.168Z,4.00
2018-12-26T08:26:37.160Z,4.00
2018-12-26T08:27:37.106Z,4.00
2018-12-26T08:28:37.076Z,4.00
2018-12-26T08:29:37.028Z,4.00
2018-12-26T08:30:37.002Z,8.00
2018-12-26T08:31:36.971Z,12.00
2018-12-26T08:32:36.936Z,16.00
2018-12-26T08:33:36.917Z,16.00
2018-12-26T08:34:37.563Z,20.00
2018-12-26T08:35:36.894Z,24.00
2018-12-26T08:36:36.824Z,28.00
2018-12-26T08:37:36.776Z,36.00
2018-12-26T08:38:36.728Z,48.00
2018-12-26T08:39:36.700Z,56.00
2018-12-26T08:40:37.142Z,64.00
2018-12-26T08:41:36.635Z,72.00
2018-12-26T08:42:36.612Z,80.00
2018-12-26T08:43:36.569Z,92.00
2018-12-26T08:44:36.545Z,104.00
2018-12-26T08:45:36.523Z,124.00
2018-12-26T08:46:36.825Z,144.00
2018-12-26T08:47:36.458Z,164.00
2018-12-26T08:48:36.419Z,180.00
2018-12-26T08:49:36.384Z,196.00
2018-12-26T08:50:36.351Z,212.00
2018-12-26T08:51:36.304Z,232.00
2018-12-26T08:52:36.296Z,252.00
2018-12-26T08:53:36.259Z,268.00
2018-12-26T08:54:36.218Z,296.00
2018-12-26T08:55:36.163Z,324.00
2018-12-26T08:56:36.171Z,356.00
2018-12-26T08:57:36.119Z,388.00
2018-12-26T08:58:36.100Z,424.00
2018-12-26T08:59:36.074Z,444.00
2018-12-26T09:00:36.041Z,472.00
2018-12-26T09:01:35.995Z,500.00
2018-12-26T09:02:35.965Z,520.00
2018-12-26T09:03:35.967Z,536.00
2018-12-26T09:04:35.891Z,556.00
2018-12-26T09:05:35.885Z,572.00
2018-12-26T09:06:35.864Z,600.00
2018-12-26T09:07:35.831Z,632.00
2018-12-26T09:08:35.760Z,656.00
2018-12-26T09:09:35.711Z,668.00
2018-12-26T09:10:35.714Z,672.00
2018-12-26T09:11:35.671Z,672.00
2018-12-26T09:12:35.651Z,668.00
2018-12-26T09:13:35.906Z,668.00
2018-12-26T09:14:35.555Z,672.00
2018-12-26T09:15:35.536Z,684.00
2018-12-26T09:16:35.522Z,692.00
2018-12-26T09:17:35.487Z,700.00
2018-12-26T09:18:35.491Z,720.00
2018-12-26T09:19:35.428Z,736.00
2018-12-26T09:20:35.384Z,728.00
2018-12-26T09:21:35.349Z,692.00
2018-12-26T09:22:35.313Z,756.00
2018-12-26T09:23:35.295Z,808.00
2018-12-26T09:24:35.231Z,824.00
2018-12-26T09:25:35.204Z,844.00
2018-12-26T09:26:35.169Z,852.00
2018-12-26T09:27:35.136Z,864.00
2018-12-26T09:28:43.495Z,880.00
2018-12-26T09:29:35.096Z,924.00
2018-12-26T09:30:35.054Z,1048.00
2018-12-26T09:31:35.036Z,1224.00
2018-12-26T09:32:35.094Z,1316.00
2018-12-26T09:33:34.942Z,1396.00
2018-12-26T09:34:34.928Z,1376.00
2018-12-26T09:35:34.886Z,1316.00
2018-12-26T09:36:34.860Z,1216.00
2018-12-26T09:37:34.818Z,1136.00
2018-12-26T09:38:34.794Z,1104.00
2018-12-26T09:39:34.758Z,1092.00
2018-12-26T09:40:34.706Z,1048.00
2018-12-26T09:41:34.677Z,976.00
2018-12-26T09:42:34.641Z,996.00
2018-12-26T09:43:34.625Z,1004.00
2018-12-26T09:44:34.615Z,1064.00
2018-12-26T09:45:34.556Z,1144.00
2018-12-26T09:46:34.517Z,1132.00
2018-12-26T09:47:34.506Z,1060.00
2018-12-26T09:48:34.452Z,1076.00
2018-12-26T09:49:34.443Z,1124.00
2018-12-26T09:50:34.394Z,1184.00
2018-12-26T09:51:34.377Z,1136.00
2018-12-26T09:52:34.330Z,1060.00
2018-12-26T09:53:34.291Z,1088.00
2018-12-26T09:54:34.283Z,1120.00
2018-12-26T09:55:34.436Z,1296.00
2018-12-26T09:56:34.194Z,1292.00
2018-12-26T09:57:34.184Z,1372.00
2018-12-26T09:58:34.131Z,1268.00
2018-12-26T09:59:34.114Z,1412.00
2018-12-26T10:00:34.081Z,1508.00
2018-12-26T10:01:34.036Z,1652.00
2018-12-26T10:02:33.989Z,1692.00
2018-12-26T10:03:33.991Z,1700.00
2018-12-26T10:04:33.968Z,1608.00
2018-12-26T10:05:33.919Z,1624.00
2018-12-26T10:06:33.884Z,1620.00
2018-12-26T10:07:33.857Z,1580.00
2018-12-26T10:08:33.799Z,1588.00
2018-12-26T10:09:33.915Z,1572.00
2018-12-26T10:10:33.756Z,1604.00
2018-12-26T10:11:33.786Z,1748.00
2018-12-26T10:12:33.698Z,1920.00
2018-12-26T10:13:33.665Z,1964.00
2018-12-26T10:14:33.608Z,1844.00
2018-12-26T10:15:33.667Z,1612.00
2018-12-26T10:16:33.562Z,1480.00
2018-12-26T10:17:33.519Z,1452.00
2018-12-26T10:18:33.519Z,1540.00
2018-12-26T10:19:33.461Z,1676.00
2018-12-26T10:20:33.435Z,1792.00
2018-12-26T10:21:33.392Z,1832.00
2018-12-26T10:22:33.364Z,1872.00
2018-12-26T10:23:33.347Z,1840.00
2018-12-26T10:24:33.449Z,1796.00
2018-12-26T10:25:33.318Z,1756.00
2018-12-26T10:26:33.283Z,1840.00
2018-12-26T10:27:33.221Z,1948.00
2018-12-26T10:28:33.177Z,2036.00
2018-12-26T10:29:33.149Z,2072.00
2018-12-26T10:30:33.119Z,1856.00
2018-12-26T10:31:33.095Z,1764.00
2018-12-26T10:32:33.060Z,1996.00
2018-12-26T10:33:33.020Z,2144.00
2018-12-26T10:34:33.025Z,2128.00
2018-12-26T10:35:32.973Z,2016.00
2018-12-26T10:36:32.919Z,2016.00
2018-12-26T10:37:32.971Z,2012.00
2018-12-26T10:38:32.883Z,1968.00
2018-12-26T10:39:32.813Z,1796.00
2018-12-26T10:40:32.810Z,1600.00
2018-12-26T10:41:32.978Z,1544.00
2018-12-26T10:42:32.762Z,1560.00
2018-12-26T10:43:32.704Z,1592.00
2018-12-26T10:44:32.689Z,1648.00
2018-12-26T10:45:32.632Z,1728.00
2018-12-26T10:46:32.617Z,1768.00
2018-12-26T10:47:32.585Z,1764.00
2018-12-26T10:48:32.536Z,1804.00
2018-12-26T10:49:32.515Z,1920.00
2018-12-26T10:50:33.146Z,1948.00
2018-12-26T10:51:32.460Z,2056.00
2018-12-26T10:52:32.400Z,2320.00
2018-12-26T10:53:32.387Z,2452.00
2018-12-26T10:54:32.355Z,2408.00
2018-12-26T10:55:32.340Z,2176.00
2018-12-26T10:56:32.292Z,1916.00
2018-12-26T10:57:32.274Z,2048.00
2018-12-26T10:58:32.231Z,2076.00
2018-12-26T10:59:32.201Z,2112.00
2018-12-26T11:00:32.167Z,2128.00
2018-12-26T11:01:32.133Z,2156.00
2018-12-26T11:02:32.097Z,2184.00
2018-12-26T11:03:32.062Z,2280.00
2018-12-26T11:04:32.045Z,2196.00
2018-12-26T11:05:32.019Z,2232.00
2018-12-26T11:06:31.981Z,2252.00
2018-12-26T11:07:31.994Z,2216.00
2018-12-26T11:08:31.918Z,2224.00
2018-12-26T11:09:31.990Z,2164.00
2018-12-26T11:10:31.870Z,2148.00
2018-12-26T11:11:31.833Z,2208.00
2018-12-26T11:12:31.836Z,2320.00
2018-12-26T11:13:32.065Z,2296.00
2018-12-26T11:14:31.803Z,2420.00
2018-12-26T11:15:31.720Z,2540.00
2018-12-26T11:16:31.749Z,2452.00
2018-12-26T11:17:32.858Z,2340.00
2018-12-26T11:18:31.598Z,2288.00
2018-12-26T11:19:32.049Z,2404.00
2018-12-26T11:20:31.547Z,2376.00
2018-12-26T11:21:31.683Z,2560.00
2018-12-26T11:22:31.481Z,2496.00
2018-12-26T11:23:31.462Z,2524.00
2018-12-26T11:24:31.428Z,2720.00
2018-12-26T11:25:31.406Z,2796.00
2018-12-26T11:26:31.357Z,1720.00
2018-12-26T11:27:31.323Z,1752.00
2018-12-26T11:28:31.330Z,1752.00
2018-12-26T11:29:31.263Z,1820.00
2018-12-26T11:30:31.281Z,1812.00
2018-12-26T11:31:31.215Z,1820.00
2018-12-26T11:32:31.163Z,1888.00
2018-12-26T11:33:31.124Z,2032.00
2018-12-26T11:34:31.093Z,2188.00
2018-12-26T11:35:31.076Z,2320.00
2018-12-26T11:36:31.088Z,2412.00
2018-12-26T11:37:31.021Z,2484.00
2018-12-26T11:38:31.096Z,2500.00
2018-12-26T11:39:30.943Z,2516.00
2018-12-26T11:40:30.955Z,2476.00
2018-12-26T11:41:30.897Z,2404.00
2018-12-26T11:42:30.867Z,2376.00
2018-12-26T11:43:30.938Z,2384.00
2018-12-26T11:44:31.003Z,2340.00
2018-12-26T11:45:30.867Z,2316.00
2018-12-26T11:46:30.760Z,2192.00
2018-12-26T11:47:30.695Z,2164.00
2018-12-26T11:48:30.689Z,2144.00
2018-12-26T11:49:30.665Z,2216.00
2018-12-26T11:50:30.672Z,2292.00
2018-12-26T11:51:30.702Z,2340.00
2018-12-26T11:52:30.547Z,2384.00
2018-12-26T11:53:30.513Z,2408.00
2018-12-26T11:54:30.485Z,2384.00
2018-12-26T11:55:30.656Z,2344.00
2018-12-26T11:56:30.430Z,2336.00
2018-12-26T11:57:30.507Z,2264.00
2018-12-26T11:58:30.451Z,2184.00
2018-12-26T11:59:30.332Z,2120.00
2018-12-26T12:00:30.848Z,2124.00
2018-12-26T12:01:30.290Z,2100.00
2018-12-26T12:02:30.256Z,2056.00
2018-12-26T12:03:30.402Z,2088.00
2018-12-26T12:04:30.207Z,2136.00
2018-12-26T12:05:30.182Z,2148.00
2018-12-26T12:06:31.432Z,2156.00
2018-12-26T12:07:30.143Z,2224.00
2018-12-26T12:08:30.094Z,2280.00
2018-12-26T12:09:30.073Z,2224.00
2018-12-26T12:10:30.023Z,2144.00
2018-12-26T12:11:29.982Z,2112.00
2018-12-26T12:12:29.946Z,2060.00
2018-12-26T12:13:29.927Z,2052.00
2018-12-26T12:14:29.940Z,2072.00
2018-12-26T12:15:29.871Z,2132.00
2018-12-26T12:16:30.037Z,2104.00
2018-12-26T12:17:29.812Z,2108.00
2018-12-26T12:18:29.753Z,2172.00
2018-12-26T12:19:29.751Z,2328.00
2018-12-26T12:20:29.729Z,2480.00
2018-12-26T12:21:29.705Z,2632.00
2018-12-26T12:22:29.647Z,2696.00
2018-12-26T12:23:29.634Z,2768.00
2018-12-26T12:24:29.641Z,2784.00
2018-12-26T12:25:29.603Z,2748.00
2018-12-26T12:26:29.535Z,2676.00
2018-12-26T12:27:29.511Z,2640.00
2018-12-26T12:28:29.488Z,2600.00
2018-12-26T12:29:35.940Z,2568.00
2018-12-26T12:30:29.406Z,2564.00
2018-12-26T12:31:29.397Z,2548.00
2018-12-26T12:32:29.367Z,2464.00
2018-12-26T12:33:29.313Z,2512.00
2018-12-26T12:34:29.312Z,2444.00
2018-12-26T12:35:29.260Z,2420.00
2018-12-26T12:36:29.298Z,2412.00
2018-12-26T12:37:29.206Z,2356.00
2018-12-26T12:38:29.177Z,2332.00
2018-12-26T12:39:29.185Z,2148.00
2018-12-26T12:40:29.237Z,2252.00
2018-12-26T12:41:29.091Z,2152.00
2018-12-26T12:42:29.067Z,2128.00
2018-12-26T12:43:29.055Z,2128.00
2018-12-26T12:44:28.998Z,2056.00
2018-12-26T12:45:28.982Z,1968.00
2018-12-26T12:46:28.937Z,1876.00
2018-12-26T12:47:28.911Z,1812.00
2018-12-26T12:48:28.861Z,2064.00
2018-12-26T12:49:28.855Z,2028.00
2018-12-26T12:50:28.824Z,2080.00
2018-12-26T12:51:28.786Z,2212.00
2018-12-26T12:52:28.770Z,2512.00
2018-12-26T12:53:28.740Z,2460.00
2018-12-26T12:54:28.692Z,2356.00
2018-12-26T12:55:28.709Z,2168.00
2018-12-26T12:56:28.654Z,1988.00
2018-12-26T12:57:28.621Z,1828.00
2018-12-26T12:58:28.582Z,1628.00